sensor_id;sensor_type;location;lat;lon;timestamp;P1;durP1;ratioP1;P2;durP2;ratioP2
47922;SDS011;33688;44.354;9.228;2022-08-19T00:00:33;1.58;;;1.48;;
47922;SDS011;33688;44.354;9.228;2022-08-19T00:03:03;0.70;;;0.70;;
47922;SDS011;33688;44.354;9.228;2022-08-19T00:05:30;0.88;;;0.88;;
47922;SDS011;33688;44.354;9.228;2022-08-19T00:07:56;1.65;;;1.02;;
47922;SDS011;33688;44.354;9.228;2022-08-19T00:10:22;1.90;;;1.25;;
47922;SDS011;33688;44.354;9.228;2022-08-19T00:12:49;1.77;;;1.00;;
47922;SDS011;33688;44.354;9.228;2022-08-19T00:15:17;1.15;;;0.93;;
47922;SDS011;33688;44.354;9.228;2022-08-19T00:17:46;0.80;;;0.77;;
47922;SDS011;33688;44.354;9.228;2022-08-19T00:20:13;1.33;;;0.90;;
47922;SDS011;33688;44.354;9.228;2022-08-19T00:22:45;2.53;;;1.00;;
47922;SDS011;33688;44.354;9.228;2022-08-19T00:25:12;0.82;;;0.80;;
47922;SDS011;33688;44.354;9.228;2022-08-19T00:27:38;1.10;;;1.00;;
47922;SDS011;33688;44.354;9.228;2022-08-19T00:30:05;1.17;;;1.08;;
47922;SDS011;33688;44.354;9.228;2022-08-19T00:32:32;1.50;;;1.10;;
47922;SDS011;33688;44.354;9.228;2022-08-19T00:34:59;2.05;;;0.90;;
47922;SDS011;33688;44.354;9.228;2022-08-19T00:37:26;1.23;;;0.80;;
47922;SDS011;33688;44.354;9.228;2022-08-19T00:39:52;1.80;;;1.13;;
47922;SDS011;33688;44.354;9.228;2022-08-19T00:42:19;0.93;;;0.85;;
47922;SDS011;33688;44.354;9.228;2022-08-19T00:44:46;0.88;;;0.80;;
47922;SDS011;33688;44.354;9.228;2022-08-19T00:47:12;0.80;;;0.80;;
47922;SDS011;33688;44.354;9.228;2022-08-19T00:49:40;1.02;;;0.75;;
47922;SDS011;33688;44.354;9.228;2022-08-19T00:52:17;1.30;;;0.98;;
47922;SDS011;33688;44.354;9.228;2022-08-19T00:54:50;0.85;;;0.85;;
47922;SDS011;33688;44.354;9.228;2022-08-19T00:57:18;0.90;;;0.90;;
47922;SDS011;33688;44.354;9.228;2022-08-19T00:59:59;2.10;;;1.00;;
47922;SDS011;33688;44.354;9.228;2022-08-19T01:02:27;1.13;;;0.73;;
47922;SDS011;33688;44.354;9.228;2022-08-19T01:04:55;1.77;;;1.17;;
47922;SDS011;33688;44.354;9.228;2022-08-19T01:07:21;1.13;;;0.90;;
47922;SDS011;33688;44.354;9.228;2022-08-19T01:09:47;0.93;;;0.88;;
47922;SDS011;33688;44.354;9.228;2022-08-19T01:12:13;0.90;;;0.80;;
47922;SDS011;33688;44.354;9.228;2022-08-19T01:14:40;1.35;;;0.70;;
47922;SDS011;33688;44.354;9.228;2022-08-19T01:17:07;1.30;;;1.08;;
47922;SDS011;33688;44.354;9.228;2022-08-19T01:19:36;1.13;;;0.93;;
47922;SDS011;33688;44.354;9.228;2022-08-19T01:22:06;2.08;;;1.10;;
47922;SDS011;33688;44.354;9.228;2022-08-19T01:24:54;2.38;;;1.75;;
47922;SDS011;33688;44.354;9.228;2022-08-19T01:27:19;1.13;;;1.00;;
47922;SDS011;33688;44.354;9.228;2022-08-19T01:29:45;0.98;;;0.75;;
47922;SDS011;33688;44.354;9.228;2022-08-19T01:32:12;0.85;;;0.73;;
47922;SDS011;33688;44.354;9.228;2022-08-19T01:34:41;0.60;;;0.60;;
47922;SDS011;33688;44.354;9.228;2022-08-19T01:37:08;0.75;;;0.75;;
47922;SDS011;33688;44.354;9.228;2022-08-19T01:39:37;0.75;;;0.75;;
47922;SDS011;33688;44.354;9.228;2022-08-19T01:42:07;0.80;;;0.80;;
47922;SDS011;33688;44.354;9.228;2022-08-19T01:44:38;1.90;;;0.98;;
47922;SDS011;33688;44.354;9.228;2022-08-19T01:47:06;1.10;;;0.80;;
47922;SDS011;33688;44.354;9.228;2022-08-19T01:49:34;0.90;;;0.90;;
47922;SDS011;33688;44.354;9.228;2022-08-19T01:52:00;1.05;;;1.00;;
47922;SDS011;33688;44.354;9.228;2022-08-19T01:54:26;0.95;;;0.90;;
47922;SDS011;33688;44.354;9.228;2022-08-19T01:56:53;1.50;;;0.90;;
47922;SDS011;33688;44.354;9.228;2022-08-19T01:59:33;1.00;;;0.90;;
47922;SDS011;33688;44.354;9.228;2022-08-19T02:02:02;1.83;;;0.93;;
47922;SDS011;33688;44.354;9.228;2022-08-19T02:04:34;0.85;;;0.85;;
47922;SDS011;33688;44.354;9.228;2022-08-19T02:07:02;0.70;;;0.70;;
47922;SDS011;33688;44.354;9.228;2022-08-19T02:09:28;0.88;;;0.80;;
47922;SDS011;33688;44.354;9.228;2022-08-19T02:11:57;0.70;;;0.70;;
47922;SDS011;33688;44.354;9.228;2022-08-19T02:14:23;0.88;;;0.70;;
47922;SDS011;33688;44.354;9.228;2022-08-19T02:16:49;0.82;;;0.82;;
47922;SDS011;33688;44.354;9.228;2022-08-19T02:19:15;0.95;;;0.95;;
47922;SDS011;33688;44.354;9.228;2022-08-19T02:21:40;1.48;;;0.90;;
47922;SDS011;33688;44.354;9.228;2022-08-19T02:24:06;1.10;;;0.85;;
47922;SDS011;33688;44.354;9.228;2022-08-19T02:26:32;0.63;;;0.63;;
47922;SDS011;33688;44.354;9.228;2022-08-19T02:28:58;0.70;;;0.70;;
47922;SDS011;33688;44.354;9.228;2022-08-19T02:31:25;1.60;;;1.00;;
47922;SDS011;33688;44.354;9.228;2022-08-19T02:33:53;1.02;;;0.93;;
47922;SDS011;33688;44.354;9.228;2022-08-19T02:36:21;0.55;;;0.55;;
47922;SDS011;33688;44.354;9.228;2022-08-19T02:38:48;1.08;;;0.98;;
47922;SDS011;33688;44.354;9.228;2022-08-19T02:41:16;0.93;;;0.82;;
47922;SDS011;33688;44.354;9.228;2022-08-19T02:43:45;0.63;;;0.63;;
47922;SDS011;33688;44.354;9.228;2022-08-19T02:46:15;0.98;;;0.60;;
47922;SDS011;33688;44.354;9.228;2022-08-19T02:48:52;1.40;;;0.73;;
47922;SDS011;33688;44.354;9.228;2022-08-19T02:51:37;0.90;;;0.90;;
47922;SDS011;33688;44.354;9.228;2022-08-19T02:54:06;0.50;;;0.50;;
47922;SDS011;33688;44.354;9.228;2022-08-19T02:56:34;0.85;;;0.80;;
47922;SDS011;33688;44.354;9.228;2022-08-19T02:59:02;0.95;;;0.80;;
47922;SDS011;33688;44.354;9.228;2022-08-19T03:01:36;0.60;;;0.60;;
47922;SDS011;33688;44.354;9.228;2022-08-19T03:04:04;0.75;;;0.75;;
47922;SDS011;33688;44.354;9.228;2022-08-19T03:06:32;0.50;;;0.50;;
47922;SDS011;33688;44.354;9.228;2022-08-19T03:09:03;1.23;;;1.10;;
47922;SDS011;33688;44.354;9.228;2022-08-19T03:11:30;1.00;;;0.80;;
47922;SDS011;33688;44.354;9.228;2022-08-19T03:13:57;1.40;;;0.77;;
47922;SDS011;33688;44.354;9.228;2022-08-19T03:16:25;0.70;;;0.70;;
47922;SDS011;33688;44.354;9.228;2022-08-19T03:18:55;0.73;;;0.60;;
47922;SDS011;33688;44.354;9.228;2022-08-19T03:21:28;1.55;;;0.93;;
47922;SDS011;33688;44.354;9.228;2022-08-19T03:26:24;1.33;;;0.80;;
47922;SDS011;33688;44.354;9.228;2022-08-19T03:28:50;1.70;;;0.70;;
47922;SDS011;33688;44.354;9.228;2022-08-19T03:31:18;0.60;;;0.60;;
47922;SDS011;33688;44.354;9.228;2022-08-19T03:33:49;0.82;;;0.70;;
47922;SDS011;33688;44.354;9.228;2022-08-19T03:36:17;1.70;;;0.75;;
47922;SDS011;33688;44.354;9.228;2022-08-19T03:38:51;0.75;;;0.75;;
47922;SDS011;33688;44.354;9.228;2022-08-19T03:41:20;0.80;;;0.80;;
47922;SDS011;33688;44.354;9.228;2022-08-19T03:43:55;1.15;;;0.82;;
47922;SDS011;33688;44.354;9.228;2022-08-19T03:46:26;0.68;;;0.65;;
47922;SDS011;33688;44.354;9.228;2022-08-19T03:48:57;1.27;;;0.85;;
47922;SDS011;33688;44.354;9.228;2022-08-19T03:53:54;0.70;;;0.70;;
47922;SDS011;33688;44.354;9.228;2022-08-19T03:56:21;1.00;;;0.90;;
47922;SDS011;33688;44.354;9.228;2022-08-19T03:58:47;0.65;;;0.65;;
47922;SDS011;33688;44.354;9.228;2022-08-19T04:01:15;0.85;;;0.80;;
47922;SDS011;33688;44.354;9.228;2022-08-19T04:03:44;0.52;;;0.52;;
47922;SDS011;33688;44.354;9.228;2022-08-19T04:06:15;0.70;;;0.68;;
47922;SDS011;33688;44.354;9.228;2022-08-19T04:08:47;0.60;;;0.60;;
47922;SDS011;33688;44.354;9.228;2022-08-19T04:11:23;1.20;;;0.75;;
47922;SDS011;33688;44.354;9.228;2022-08-19T04:13:52;1.00;;;0.80;;
47922;SDS011;33688;44.354;9.228;2022-08-19T04:16:19;0.65;;;0.65;;
47922;SDS011;33688;44.354;9.228;2022-08-19T04:18:47;0.80;;;0.70;;
47922;SDS011;33688;44.354;9.228;2022-08-19T04:21:23;1.02;;;0.98;;
47922;SDS011;33688;44.354;9.228;2022-08-19T04:23:51;0.70;;;0.60;;
47922;SDS011;33688;44.354;9.228;2022-08-19T04:26:19;0.70;;;0.70;;
47922;SDS011;33688;44.354;9.228;2022-08-19T04:28:52;0.70;;;0.70;;
47922;SDS011;33688;44.354;9.228;2022-08-19T04:31:23;0.80;;;0.80;;
47922;SDS011;33688;44.354;9.228;2022-08-19T04:36:29;1.00;;;0.60;;
47922;SDS011;33688;44.354;9.228;2022-08-19T04:38:59;0.77;;;0.77;;
47922;SDS011;33688;44.354;9.228;2022-08-19T04:41:31;0.68;;;0.68;;
47922;SDS011;33688;44.354;9.228;2022-08-19T04:44:16;0.60;;;0.60;;
47922;SDS011;33688;44.354;9.228;2022-08-19T04:46:43;0.88;;;0.80;;
47922;SDS011;33688;44.354;9.228;2022-08-19T04:49:14;1.25;;;0.95;;
47922;SDS011;33688;44.354;9.228;2022-08-19T04:51:42;0.65;;;0.63;;
47922;SDS011;33688;44.354;9.228;2022-08-19T04:54:10;1.15;;;0.77;;
47922;SDS011;33688;44.354;9.228;2022-08-19T04:56:36;0.80;;;0.80;;
47922;SDS011;33688;44.354;9.228;2022-08-19T04:59:03;0.60;;;0.60;;
47922;SDS011;33688;44.354;9.228;2022-08-19T05:01:30;0.60;;;0.60;;
47922;SDS011;33688;44.354;9.228;2022-08-19T05:04:01;0.73;;;0.65;;
47922;SDS011;33688;44.354;9.228;2022-08-19T05:06:30;1.02;;;0.63;;
47922;SDS011;33688;44.354;9.228;2022-08-19T05:09:00;0.70;;;0.60;;
47922;SDS011;33688;44.354;9.228;2022-08-19T05:11:35;0.30;;;0.30;;
47922;SDS011;33688;44.354;9.228;2022-08-19T05:14:06;0.90;;;0.75;;
47922;SDS011;33688;44.354;9.228;2022-08-19T05:16:33;0.93;;;0.80;;
47922;SDS011;33688;44.354;9.228;2022-08-19T05:18:59;0.95;;;0.70;;
47922;SDS011;33688;44.354;9.228;2022-08-19T05:21:44;0.80;;;0.57;;
47922;SDS011;33688;44.354;9.228;2022-08-19T05:24:29;0.68;;;0.68;;
47922;SDS011;33688;44.354;9.228;2022-08-19T05:26:57;1.38;;;0.90;;
47922;SDS011;33688;44.354;9.228;2022-08-19T05:29:24;1.08;;;0.88;;
47922;SDS011;33688;44.354;9.228;2022-08-19T05:31:52;0.73;;;0.60;;
47922;SDS011;33688;44.354;9.228;2022-08-19T05:34:20;1.20;;;0.73;;
47922;SDS011;33688;44.354;9.228;2022-08-19T05:36:50;0.60;;;0.60;;
47922;SDS011;33688;44.354;9.228;2022-08-19T05:39:23;1.23;;;1.13;;
47922;SDS011;33688;44.354;9.228;2022-08-19T05:41:55;0.85;;;0.82;;
47922;SDS011;33688;44.354;9.228;2022-08-19T05:44:28;0.50;;;0.50;;
47922;SDS011;33688;44.354;9.228;2022-08-19T05:46:56;0.60;;;0.60;;
47922;SDS011;33688;44.354;9.228;2022-08-19T05:49:27;0.50;;;0.50;;
47922;SDS011;33688;44.354;9.228;2022-08-19T05:51:54;0.55;;;0.55;;
47922;SDS011;33688;44.354;9.228;2022-08-19T05:54:21;0.40;;;0.40;;
47922;SDS011;33688;44.354;9.228;2022-08-19T05:56:49;0.75;;;0.70;;
47922;SDS011;33688;44.354;9.228;2022-08-19T05:59:17;0.60;;;0.60;;
47922;SDS011;33688;44.354;9.228;2022-08-19T06:01:47;0.95;;;0.68;;
47922;SDS011;33688;44.354;9.228;2022-08-19T06:04:19;2.15;;;0.90;;
47922;SDS011;33688;44.354;9.228;2022-08-19T06:06:46;2.15;;;0.90;;
47922;SDS011;33688;44.354;9.228;2022-08-19T06:09:15;2.53;;;0.85;;
47922;SDS011;33688;44.354;9.228;2022-08-19T06:11:50;7.63;;;1.40;;
47922;SDS011;33688;44.354;9.228;2022-08-19T06:14:28;4.43;;;1.02;;
47922;SDS011;33688;44.354;9.228;2022-08-19T06:16:58;7.18;;;1.48;;
47922;SDS011;33688;44.354;9.228;2022-08-19T06:19:26;3.75;;;1.10;;
47922;SDS011;33688;44.354;9.228;2022-08-19T06:21:56;6.65;;;1.92;;
47922;SDS011;33688;44.354;9.228;2022-08-19T06:24:24;4.07;;;1.30;;
47922;SDS011;33688;44.354;9.228;2022-08-19T06:26:53;5.60;;;1.40;;
47922;SDS011;33688;44.354;9.228;2022-08-19T06:29:23;7.90;;;1.58;;
47922;SDS011;33688;44.354;9.228;2022-08-19T06:31:53;2.72;;;0.93;;
47922;SDS011;33688;44.354;9.228;2022-08-19T06:34:21;6.10;;;1.58;;
47922;SDS011;33688;44.354;9.228;2022-08-19T06:36:49;5.55;;;1.25;;
47922;SDS011;33688;44.354;9.228;2022-08-19T06:39:21;5.35;;;1.48;;
47922;SDS011;33688;44.354;9.228;2022-08-19T06:41:52;9.18;;;1.30;;
47922;SDS011;33688;44.354;9.228;2022-08-19T06:44:23;3.05;;;1.45;;
47922;SDS011;33688;44.354;9.228;2022-08-19T06:46:51;9.30;;;1.58;;
47922;SDS011;33688;44.354;9.228;2022-08-19T07:01:39;1.90;;;1.50;;
47922;SDS011;33688;44.354;9.228;2022-08-19T07:04:16;10.95;;;1.85;;
47922;SDS011;33688;44.354;9.228;2022-08-19T07:06:46;8.45;;;1.95;;
47922;SDS011;33688;44.354;9.228;2022-08-19T07:09:13;2.88;;;1.10;;
47922;SDS011;33688;44.354;9.228;2022-08-19T07:11:46;8.30;;;2.55;;
47922;SDS011;33688;44.354;9.228;2022-08-19T07:14:15;4.50;;;1.70;;
47922;SDS011;33688;44.354;9.228;2022-08-19T07:16:44;6.53;;;2.53;;
47922;SDS011;33688;44.354;9.228;2022-08-19T07:19:11;6.88;;;2.03;;
47922;SDS011;33688;44.354;9.228;2022-08-19T07:21:38;5.50;;;2.05;;
47922;SDS011;33688;44.354;9.228;2022-08-19T07:24:03;4.32;;;1.95;;
47922;SDS011;33688;44.354;9.228;2022-08-19T07:26:31;5.25;;;2.05;;
47922;SDS011;33688;44.354;9.228;2022-08-19T07:28:59;5.78;;;1.77;;
47922;SDS011;33688;44.354;9.228;2022-08-19T07:31:27;5.43;;;2.17;;
47922;SDS011;33688;44.354;9.228;2022-08-19T07:33:54;2.65;;;1.63;;
47922;SDS011;33688;44.354;9.228;2022-08-19T07:36:22;3.75;;;1.75;;
47922;SDS011;33688;44.354;9.228;2022-08-19T07:38:57;5.50;;;2.25;;
47922;SDS011;33688;44.354;9.228;2022-08-19T07:41:27;3.65;;;1.67;;
47922;SDS011;33688;44.354;9.228;2022-08-19T07:43:57;15.43;;;2.08;;
47922;SDS011;33688;44.354;9.228;2022-08-19T07:46:30;4.80;;;2.22;;
47922;SDS011;33688;44.354;9.228;2022-08-19T07:49:00;6.40;;;1.50;;
47922;SDS011;33688;44.354;9.228;2022-08-19T07:51:27;6.13;;;1.88;;
47922;SDS011;33688;44.354;9.228;2022-08-19T07:53:54;3.10;;;1.58;;
47922;SDS011;33688;44.354;9.228;2022-08-19T07:56:19;4.28;;;1.50;;
47922;SDS011;33688;44.354;9.228;2022-08-19T07:58:48;3.53;;;1.70;;
47922;SDS011;33688;44.354;9.228;2022-08-19T08:01:19;2.95;;;1.83;;
47922;SDS011;33688;44.354;9.228;2022-08-19T08:03:50;10.85;;;1.88;;
47922;SDS011;33688;44.354;9.228;2022-08-19T08:06:36;4.75;;;1.88;;
47922;SDS011;33688;44.354;9.228;2022-08-19T08:09:23;2.08;;;1.33;;
47922;SDS011;33688;44.354;9.228;2022-08-19T08:11:54;4.95;;;2.03;;
47922;SDS011;33688;44.354;9.228;2022-08-19T08:14:26;4.68;;;1.55;;
47922;SDS011;33688;44.354;9.228;2022-08-19T08:17:00;4.32;;;2.10;;
47922;SDS011;33688;44.354;9.228;2022-08-19T08:19:27;3.78;;;1.75;;
47922;SDS011;33688;44.354;9.228;2022-08-19T08:21:55;6.88;;;1.88;;
47922;SDS011;33688;44.354;9.228;2022-08-19T08:24:23;7.53;;;1.88;;
47922;SDS011;33688;44.354;9.228;2022-08-19T08:26:51;8.23;;;1.80;;
47922;SDS011;33688;44.354;9.228;2022-08-19T08:29:17;6.53;;;1.95;;
47922;SDS011;33688;44.354;9.228;2022-08-19T08:31:45;4.47;;;2.10;;
47922;SDS011;33688;44.354;9.228;2022-08-19T08:34:12;9.20;;;2.60;;
47922;SDS011;33688;44.354;9.228;2022-08-19T08:36:41;5.57;;;1.98;;
47922;SDS011;33688;44.354;9.228;2022-08-19T08:39:12;9.30;;;2.30;;
47922;SDS011;33688;44.354;9.228;2022-08-19T08:47:02;8.70;;;3.78;;
47922;SDS011;33688;44.354;9.228;2022-08-19T08:49:43;7.35;;;3.00;;
47922;SDS011;33688;44.354;9.228;2022-08-19T08:52:19;9.07;;;3.58;;
47922;SDS011;33688;44.354;9.228;2022-08-19T08:54:50;5.15;;;2.50;;
47922;SDS011;33688;44.354;9.228;2022-08-19T08:57:27;14.68;;;6.07;;
47922;SDS011;33688;44.354;9.228;2022-08-19T09:00:07;8.95;;;4.35;;
47922;SDS011;33688;44.354;9.228;2022-08-19T09:02:39;6.43;;;3.17;;
47922;SDS011;33688;44.354;9.228;2022-08-19T09:05:05;6.60;;;4.40;;
47922;SDS011;33688;44.354;9.228;2022-08-19T09:10:48;7.63;;;4.05;;
47922;SDS011;33688;44.354;9.228;2022-08-19T09:16:16;7.28;;;3.10;;
47922;SDS011;33688;44.354;9.228;2022-08-19T09:18:54;5.18;;;3.00;;
47922;SDS011;33688;44.354;9.228;2022-08-19T09:21:25;5.80;;;3.15;;
47922;SDS011;33688;44.354;9.228;2022-08-19T09:23:52;7.28;;;2.85;;
47922;SDS011;33688;44.354;9.228;2022-08-19T09:26:20;4.97;;;3.00;;
47922;SDS011;33688;44.354;9.228;2022-08-19T09:28:48;4.90;;;2.88;;
47922;SDS011;33688;44.354;9.228;2022-08-19T09:31:24;5.40;;;3.40;;
47922;SDS011;33688;44.354;9.228;2022-08-19T09:33:53;9.10;;;3.17;;
47922;SDS011;33688;44.354;9.228;2022-08-19T09:36:22;8.02;;;4.22;;
47922;SDS011;33688;44.354;9.228;2022-08-19T09:38:51;14.18;;;5.78;;
47922;SDS011;33688;44.354;9.228;2022-08-19T09:41:19;11.02;;;4.43;;
47922;SDS011;33688;44.354;9.228;2022-08-19T09:43:50;7.85;;;4.70;;
47922;SDS011;33688;44.354;9.228;2022-08-19T09:46:21;9.68;;;4.38;;
47922;SDS011;33688;44.354;9.228;2022-08-19T09:48:51;8.60;;;4.20;;
47922;SDS011;33688;44.354;9.228;2022-08-19T09:51:18;8.25;;;2.58;;
47922;SDS011;33688;44.354;9.228;2022-08-19T09:53:49;7.95;;;3.00;;
47922;SDS011;33688;44.354;9.228;2022-08-19T09:56:19;10.45;;;3.50;;
47922;SDS011;33688;44.354;9.228;2022-08-19T09:58:46;8.93;;;3.55;;
47922;SDS011;33688;44.354;9.228;2022-08-19T10:01:22;5.53;;;2.50;;
47922;SDS011;33688;44.354;9.228;2022-08-19T10:03:52;6.43;;;2.95;;
47922;SDS011;33688;44.354;9.228;2022-08-19T10:06:25;7.78;;;3.58;;
47922;SDS011;33688;44.354;9.228;2022-08-19T10:08:56;10.32;;;3.20;;
47922;SDS011;33688;44.354;9.228;2022-08-19T10:11:22;7.30;;;3.45;;
47922;SDS011;33688;44.354;9.228;2022-08-19T10:13:48;6.50;;;2.88;;
47922;SDS011;33688;44.354;9.228;2022-08-19T10:16:15;5.40;;;2.58;;
47922;SDS011;33688;44.354;9.228;2022-08-19T10:18:45;11.88;;;3.20;;
47922;SDS011;33688;44.354;9.228;2022-08-19T10:21:15;5.38;;;1.83;;
47922;SDS011;33688;44.354;9.228;2022-08-19T10:23:45;3.70;;;1.60;;
47922;SDS011;33688;44.354;9.228;2022-08-19T10:26:17;4.05;;;1.33;;
47922;SDS011;33688;44.354;9.228;2022-08-19T10:28:59;2.03;;;1.30;;
47922;SDS011;33688;44.354;9.228;2022-08-19T10:31:27;3.28;;;1.73;;
47922;SDS011;33688;44.354;9.228;2022-08-19T10:33:56;3.08;;;1.40;;
47922;SDS011;33688;44.354;9.228;2022-08-19T10:36:24;4.47;;;1.60;;
47922;SDS011;33688;44.354;9.228;2022-08-19T10:39:03;2.67;;;1.50;;
47922;SDS011;33688;44.354;9.228;2022-08-19T10:41:36;3.80;;;1.40;;
47922;SDS011;33688;44.354;9.228;2022-08-19T10:44:04;2.80;;;1.65;;
47922;SDS011;33688;44.354;9.228;2022-08-19T10:46:34;5.63;;;1.80;;
47922;SDS011;33688;44.354;9.228;2022-08-19T10:49:10;3.05;;;1.25;;
47922;SDS011;33688;44.354;9.228;2022-08-19T10:51:37;2.10;;;1.55;;
47922;SDS011;33688;44.354;9.228;2022-08-19T10:54:23;2.55;;;1.58;;
47922;SDS011;33688;44.354;9.228;2022-08-19T10:57:09;4.30;;;1.50;;
47922;SDS011;33688;44.354;9.228;2022-08-19T10:59:34;5.03;;;1.55;;
47922;SDS011;33688;44.354;9.228;2022-08-19T11:02:01;3.42;;;1.70;;
47922;SDS011;33688;44.354;9.228;2022-08-19T11:04:30;2.10;;;1.20;;
47922;SDS011;33688;44.354;9.228;2022-08-19T11:06:57;2.90;;;1.20;;
47922;SDS011;33688;44.354;9.228;2022-08-19T11:09:23;5.18;;;1.40;;
47922;SDS011;33688;44.354;9.228;2022-08-19T11:11:52;2.03;;;1.60;;
47922;SDS011;33688;44.354;9.228;2022-08-19T11:14:19;4.85;;;1.58;;
47922;SDS011;33688;44.354;9.228;2022-08-19T11:16:46;1.90;;;1.00;;
47922;SDS011;33688;44.354;9.228;2022-08-19T11:19:14;6.03;;;1.55;;
47922;SDS011;33688;44.354;9.228;2022-08-19T11:21:44;3.70;;;1.75;;
47922;SDS011;33688;44.354;9.228;2022-08-19T11:24:14;2.83;;;1.58;;
47922;SDS011;33688;44.354;9.228;2022-08-19T11:26:44;4.43;;;1.50;;
47922;SDS011;33688;44.354;9.228;2022-08-19T11:29:10;3.40;;;1.75;;
47922;SDS011;33688;44.354;9.228;2022-08-19T11:31:38;3.78;;;1.30;;
47922;SDS011;33688;44.354;9.228;2022-08-19T11:34:08;2.97;;;1.65;;
47922;SDS011;33688;44.354;9.228;2022-08-19T11:36:39;1.77;;;1.23;;
47922;SDS011;33688;44.354;9.228;2022-08-19T11:39:09;2.58;;;1.45;;
47922;SDS011;33688;44.354;9.228;2022-08-19T11:41:37;1.67;;;1.02;;
47922;SDS011;33688;44.354;9.228;2022-08-19T11:44:03;1.80;;;1.20;;
47922;SDS011;33688;44.354;9.228;2022-08-19T11:46:29;2.15;;;1.33;;
47922;SDS011;33688;44.354;9.228;2022-08-19T11:48:56;3.03;;;1.50;;
47922;SDS011;33688;44.354;9.228;2022-08-19T11:51:24;2.42;;;1.52;;
47922;SDS011;33688;44.354;9.228;2022-08-19T11:53:52;3.35;;;1.40;;
47922;SDS011;33688;44.354;9.228;2022-08-19T11:56:21;3.20;;;1.35;;
47922;SDS011;33688;44.354;9.228;2022-08-19T11:58:47;3.90;;;1.20;;
47922;SDS011;33688;44.354;9.228;2022-08-19T12:01:14;2.72;;;1.58;;
47922;SDS011;33688;44.354;9.228;2022-08-19T12:03:45;1.98;;;1.10;;
47922;SDS011;33688;44.354;9.228;2022-08-19T12:06:14;6.50;;;1.33;;
47922;SDS011;33688;44.354;9.228;2022-08-19T12:08:50;5.25;;;1.25;;
47922;SDS011;33688;44.354;9.228;2022-08-19T12:11:17;6.05;;;2.80;;
47922;SDS011;33688;44.354;9.228;2022-08-19T12:13:43;2.42;;;1.10;;
47922;SDS011;33688;44.354;9.228;2022-08-19T12:16:33;4.28;;;1.40;;
47922;SDS011;33688;44.354;9.228;2022-08-19T12:18:58;3.63;;;1.08;;
47922;SDS011;33688;44.354;9.228;2022-08-19T12:21:29;1.83;;;1.05;;
47922;SDS011;33688;44.354;9.228;2022-08-19T12:23:57;2.20;;;1.10;;
47922;SDS011;33688;44.354;9.228;2022-08-19T12:26:25;3.22;;;1.15;;
47922;SDS011;33688;44.354;9.228;2022-08-19T12:28:53;2.13;;;1.33;;
47922;SDS011;33688;44.354;9.228;2022-08-19T12:31:19;3.28;;;1.35;;
47922;SDS011;33688;44.354;9.228;2022-08-19T12:33:45;2.00;;;1.05;;
47922;SDS011;33688;44.354;9.228;2022-08-19T12:36:12;2.92;;;1.35;;
47922;SDS011;33688;44.354;9.228;2022-08-19T12:38:41;2.63;;;1.15;;
47922;SDS011;33688;44.354;9.228;2022-08-19T12:41:10;2.25;;;1.17;;
47922;SDS011;33688;44.354;9.228;2022-08-19T12:43:38;7.03;;;1.85;;
47922;SDS011;33688;44.354;9.228;2022-08-19T12:46:06;3.53;;;1.50;;
47922;SDS011;33688;44.354;9.228;2022-08-19T12:48:32;4.13;;;1.30;;
47922;SDS011;33688;44.354;9.228;2022-08-19T12:50:58;1.83;;;1.33;;
47922;SDS011;33688;44.354;9.228;2022-08-19T12:53:26;1.92;;;1.13;;
47922;SDS011;33688;44.354;9.228;2022-08-19T12:55:57;4.13;;;1.38;;
47922;SDS011;33688;44.354;9.228;2022-08-19T12:58:24;2.35;;;1.30;;
47922;SDS011;33688;44.354;9.228;2022-08-19T13:00:52;4.40;;;1.23;;
47922;SDS011;33688;44.354;9.228;2022-08-19T13:03:17;3.65;;;1.50;;
47922;SDS011;33688;44.354;9.228;2022-08-19T13:05:43;3.25;;;1.27;;
47922;SDS011;33688;44.354;9.228;2022-08-19T13:08:09;7.30;;;1.33;;
47922;SDS011;33688;44.354;9.228;2022-08-19T13:10:36;1.52;;;1.10;;
47922;SDS011;33688;44.354;9.228;2022-08-19T13:13:04;5.38;;;1.48;;
47922;SDS011;33688;44.354;9.228;2022-08-19T13:15:35;2.92;;;1.30;;
47922;SDS011;33688;44.354;9.228;2022-08-19T13:18:04;1.35;;;1.15;;
47922;SDS011;33688;44.354;9.228;2022-08-19T13:20:30;4.57;;;1.33;;
47922;SDS011;33688;44.354;9.228;2022-08-19T13:22:56;3.40;;;1.10;;
47922;SDS011;33688;44.354;9.228;2022-08-19T13:25:22;3.10;;;0.95;;
47922;SDS011;33688;44.354;9.228;2022-08-19T13:27:49;1.23;;;1.02;;
47922;SDS011;33688;44.354;9.228;2022-08-19T13:30:16;2.00;;;1.10;;
47922;SDS011;33688;44.354;9.228;2022-08-19T13:33:02;2.35;;;1.05;;
47922;SDS011;33688;44.354;9.228;2022-08-19T13:35:48;4.28;;;2.45;;
47922;SDS011;33688;44.354;9.228;2022-08-19T13:38:22;1.90;;;1.40;;
47922;SDS011;33688;44.354;9.228;2022-08-19T13:40:49;2.67;;;1.60;;
47922;SDS011;33688;44.354;9.228;2022-08-19T13:43:18;1.70;;;0.90;;
47922;SDS011;33688;44.354;9.228;2022-08-19T13:45:51;2.63;;;1.17;;
47922;SDS011;33688;44.354;9.228;2022-08-19T13:48:20;2.22;;;0.77;;
47922;SDS011;33688;44.354;9.228;2022-08-19T13:50:46;3.33;;;1.20;;
47922;SDS011;33688;44.354;9.228;2022-08-19T13:53:13;1.20;;;0.85;;
47922;SDS011;33688;44.354;9.228;2022-08-19T13:55:41;3.92;;;1.50;;
47922;SDS011;33688;44.354;9.228;2022-08-19T13:58:08;5.80;;;1.10;;
47922;SDS011;33688;44.354;9.228;2022-08-19T14:00:36;2.35;;;1.15;;
47922;SDS011;33688;44.354;9.228;2022-08-19T14:03:06;2.17;;;1.00;;
47922;SDS011;33688;44.354;9.228;2022-08-19T14:05:32;4.38;;;1.30;;
47922;SDS011;33688;44.354;9.228;2022-08-19T14:07:58;4.63;;;1.50;;
47922;SDS011;33688;44.354;9.228;2022-08-19T14:10:25;2.00;;;1.10;;
47922;SDS011;33688;44.354;9.228;2022-08-19T14:12:56;1.77;;;1.02;;
47922;SDS011;33688;44.354;9.228;2022-08-19T14:15:24;2.90;;;1.98;;
47922;SDS011;33688;44.354;9.228;2022-08-19T14:17:50;11.60;;;2.22;;
47922;SDS011;33688;44.354;9.228;2022-08-19T14:20:16;17.92;;;2.88;;
47922;SDS011;33688;44.354;9.228;2022-08-19T14:22:43;16.98;;;2.10;;
47922;SDS011;33688;44.354;9.228;2022-08-19T14:25:12;12.35;;;1.98;;
47922;SDS011;33688;44.354;9.228;2022-08-19T14:27:45;9.48;;;1.70;;
47922;SDS011;33688;44.354;9.228;2022-08-19T14:30:13;13.00;;;2.00;;
47922;SDS011;33688;44.354;9.228;2022-08-19T14:32:42;6.38;;;1.77;;
47922;SDS011;33688;44.354;9.228;2022-08-19T14:35:08;8.38;;;1.85;;
47922;SDS011;33688;44.354;9.228;2022-08-19T14:37:37;7.20;;;1.58;;
47922;SDS011;33688;44.354;9.228;2022-08-19T14:40:03;13.55;;;2.30;;
47922;SDS011;33688;44.354;9.228;2022-08-19T14:42:30;11.45;;;1.65;;
47922;SDS011;33688;44.354;9.228;2022-08-19T14:44:59;8.85;;;2.30;;
47922;SDS011;33688;44.354;9.228;2022-08-19T14:47:25;11.05;;;2.42;;
47922;SDS011;33688;44.354;9.228;2022-08-19T14:49:52;11.95;;;1.67;;
47922;SDS011;33688;44.354;9.228;2022-08-19T14:52:18;4.75;;;1.83;;
47922;SDS011;33688;44.354;9.228;2022-08-19T14:54:44;8.65;;;2.05;;
47922;SDS011;33688;44.354;9.228;2022-08-19T14:57:13;16.08;;;2.42;;
47922;SDS011;33688;44.354;9.228;2022-08-19T14:59:43;5.75;;;1.63;;
47922;SDS011;33688;44.354;9.228;2022-08-19T15:02:09;7.07;;;1.45;;
47922;SDS011;33688;44.354;9.228;2022-08-19T15:04:36;6.40;;;1.80;;
47922;SDS011;33688;44.354;9.228;2022-08-19T15:07:02;4.93;;;1.70;;
47922;SDS011;33688;44.354;9.228;2022-08-19T15:09:30;6.93;;;2.10;;
47922;SDS011;33688;44.354;9.228;2022-08-19T15:11:57;7.25;;;1.88;;
47922;SDS011;33688;44.354;9.228;2022-08-19T15:14:25;7.47;;;2.38;;
47922;SDS011;33688;44.354;9.228;2022-08-19T15:16:52;5.93;;;1.73;;
47922;SDS011;33688;44.354;9.228;2022-08-19T15:19:18;5.63;;;1.67;;
47922;SDS011;33688;44.354;9.228;2022-08-19T15:21:44;4.82;;;1.42;;
47922;SDS011;33688;44.354;9.228;2022-08-19T15:24:10;7.53;;;2.25;;
47922;SDS011;33688;44.354;9.228;2022-08-19T15:26:36;7.78;;;2.08;;
47922;SDS011;33688;44.354;9.228;2022-08-19T15:29:02;3.72;;;1.60;;
47922;SDS011;33688;44.354;9.228;2022-08-19T15:31:29;4.32;;;1.45;;